createdAt,value
2017-11-16T00:01:15.531Z,9.50
2017-11-16T00:03:49.585Z,9.50
2017-11-16T00:06:23.195Z,9.50
2017-11-16T00:08:56.747Z,9.50
2017-11-16T00:11:30.396Z,9.50
2017-11-16T00:14:04.094Z,9.50
2017-11-16T00:16:37.551Z,9.60
2017-11-16T00:19:11.190Z,9.60
2017-11-16T00:21:44.886Z,9.50
2017-11-16T00:24:19.299Z,9.60
2017-11-16T00:26:52.862Z,9.60
2017-11-16T00:29:26.719Z,9.50
2017-11-16T00:32:00.147Z,9.50
2017-11-16T00:34:34.535Z,9.60
2017-11-16T00:37:08.138Z,9.60
2017-11-16T00:39:41.800Z,9.50
2017-11-16T00:42:15.339Z,9.60
2017-11-16T00:44:48.950Z,9.50
2017-11-16T00:47:23.266Z,9.50
2017-11-16T00:49:57.655Z,9.50
2017-11-16T00:52:31.227Z,9.50
2017-11-16T00:55:04.873Z,9.50
2017-11-16T00:57:39.271Z,9.50
2017-11-16T01:00:13.102Z,9.50
2017-11-16T01:02:46.699Z,9.50
2017-11-16T01:05:20.998Z,9.40
2017-11-16T01:07:54.690Z,9.40
2017-11-16T01:10:28.530Z,9.40
2017-11-16T01:13:02.542Z,9.50
2017-11-16T01:15:36.023Z,9.50
2017-11-16T01:18:10.050Z,9.50
2017-11-16T01:20:44.351Z,9.40
2017-11-16T01:23:17.976Z,9.40
2017-11-16T01:25:51.578Z,9.40
2017-11-16T01:28:25.119Z,9.40
2017-11-16T01:30:59.479Z,9.40
2017-11-16T01:33:33.047Z,9.40
2017-11-16T01:36:06.790Z,9.40
2017-11-16T01:38:40.267Z,9.40
2017-11-16T01:41:13.891Z,9.40
2017-11-16T01:43:47.491Z,9.40
2017-11-16T01:46:21.399Z,9.40
2017-11-16T01:48:54.907Z,9.40
2017-11-16T01:51:29.287Z,9.30
2017-11-16T01:54:03.698Z,9.30
2017-11-16T01:56:37.443Z,9.30
2017-11-16T01:59:11.111Z,9.30
2017-11-16T02:01:44.955Z,9.30
2017-11-16T02:04:18.555Z,9.30
2017-11-16T02:06:52.368Z,9.40
2017-11-16T02:09:25.959Z,9.30
2017-11-16T02:11:59.771Z,9.30
2017-11-16T02:14:33.571Z,9.30
2017-11-16T02:17:06.992Z,9.30
2017-11-16T02:19:40.533Z,9.30
2017-11-16T02:22:14.171Z,9.20
2017-11-16T02:24:47.723Z,9.20
2017-11-16T02:27:21.478Z,9.30
2017-11-16T02:29:55.071Z,9.30
2017-11-16T02:32:28.532Z,9.20
2017-11-16T02:35:02.436Z,9.20
2017-11-16T02:37:36.287Z,9.30
2017-11-16T02:40:10.616Z,9.20
2017-11-16T02:42:44.322Z,9.20
2017-11-16T02:45:18.005Z,9.20
2017-11-16T02:47:51.471Z,9.20
2017-11-16T02:50:25.031Z,9.20
2017-11-16T02:52:58.607Z,9.10
2017-11-16T02:55:32.322Z,9.10
2017-11-16T02:58:06.839Z,9.20
2017-11-16T03:00:40.332Z,9.10
2017-11-16T03:03:14.138Z,9.20
2017-11-16T03:05:47.878Z,9.20
2017-11-16T03:08:21.544Z,9.20
2017-11-16T03:10:55.208Z,9.20
2017-11-16T03:13:28.958Z,9.20
2017-11-16T03:16:02.556Z,9.30
2017-11-16T03:18:36.598Z,9.20
2017-11-16T03:21:10.363Z,9.20
2017-11-16T03:23:43.870Z,9.20
2017-11-16T03:26:17.563Z,9.20
2017-11-16T03:28:51.176Z,9.20
2017-11-16T03:31:24.759Z,9.20
2017-11-16T03:33:58.472Z,9.10
2017-11-16T03:36:32.143Z,9.10
2017-11-16T03:39:05.878Z,9.20
2017-11-16T03:41:39.532Z,9.20
2017-11-16T03:44:13.292Z,9.20
2017-11-16T03:46:48.735Z,9.20
2017-11-16T03:49:22.308Z,9.20
2017-11-16T03:51:55.930Z,9.30
2017-11-16T03:54:30.126Z,9.20
2017-11-16T03:57:03.755Z,9.10
2017-11-16T03:59:37.252Z,9.20
2017-11-16T04:02:10.842Z,9.20
2017-11-16T04:04:45.171Z,9.20
2017-11-16T04:07:18.837Z,9.10
2017-11-16T04:09:52.675Z,9.20
2017-11-16T04:12:26.243Z,9.20
2017-11-16T04:14:59.993Z,9.10
2017-11-16T04:17:33.992Z,9.10
2017-11-16T04:20:07.671Z,9.10
2017-11-16T04:22:41.258Z,9.20
2017-11-16T04:25:15.099Z,9.10
2017-11-16T04:27:49.379Z,9.10
2017-11-16T04:30:23.218Z,9.00
2017-11-16T04:32:56.768Z,9.10
2017-11-16T04:35:31.247Z,9.00
2017-11-16T04:38:04.734Z,9.00
2017-11-16T04:40:38.308Z,9.00
2017-11-16T04:43:11.914Z,9.10
2017-11-16T04:45:45.653Z,9.10
2017-11-16T04:48:19.466Z,9.10
2017-11-16T04:50:53.150Z,9.10
2017-11-16T04:53:26.958Z,9.10
2017-11-16T04:56:01.467Z,9.00
2017-11-16T04:58:34.985Z,9.00
2017-11-16T05:01:08.586Z,9.10
2017-11-16T05:03:42.283Z,9.10
2017-11-16T05:06:15.889Z,9.10
2017-11-16T05:08:49.865Z,9.00
2017-11-16T05:11:23.440Z,9.00
2017-11-16T05:13:56.948Z,8.90
2017-11-16T05:16:30.704Z,8.90
2017-11-16T05:19:04.399Z,8.90
2017-11-16T05:21:38.060Z,8.80
2017-11-16T05:24:11.674Z,8.90
2017-11-16T05:26:45.307Z,8.80
2017-11-16T05:29:19.011Z,8.90
2017-11-16T05:31:52.723Z,8.90
2017-11-16T05:34:26.375Z,9.00
2017-11-16T05:37:00.175Z,9.00
2017-11-16T05:39:33.624Z,9.00
2017-11-16T05:42:07.318Z,9.00
2017-11-16T05:44:40.928Z,9.00
2017-11-16T05:47:14.487Z,9.10
2017-11-16T05:49:48.027Z,9.10
2017-11-16T05:52:21.628Z,9.00
2017-11-16T05:54:55.337Z,9.00
2017-11-16T05:57:28.780Z,9.10
2017-11-16T06:00:03.342Z,8.90
2017-11-16T06:02:36.947Z,8.90
2017-11-16T06:05:10.651Z,8.90
2017-11-16T06:07:44.221Z,8.90
2017-11-16T06:10:18.415Z,9.00
2017-11-16T06:12:52.037Z,9.00
2017-11-16T06:15:25.616Z,9.00
2017-11-16T06:17:59.267Z,9.10
2017-11-16T06:20:33.199Z,9.00
2017-11-16T06:23:06.987Z,9.00
2017-11-16T06:25:40.556Z,9.00
2017-11-16T06:28:14.149Z,9.00
2017-11-16T06:30:48.302Z,9.00
2017-11-16T06:33:22.214Z,9.00
2017-11-16T06:35:55.699Z,9.00
2017-11-16T06:38:29.264Z,9.00
2017-11-16T06:41:03.827Z,9.00
2017-11-16T06:43:37.428Z,9.00
2017-11-16T06:46:11.027Z,8.90
2017-11-16T06:48:44.599Z,9.00
2017-11-16T06:51:18.127Z,9.00
2017-11-16T06:53:51.727Z,9.00
2017-11-16T06:56:25.328Z,9.00
2017-11-16T06:58:59.548Z,9.00
2017-11-16T07:01:33.101Z,9.00
2017-11-16T07:04:06.959Z,8.90
2017-11-16T07:06:40.751Z,8.90
2017-11-16T07:09:14.676Z,8.90
2017-11-16T07:11:48.254Z,8.90
2017-11-16T07:14:21.867Z,8.90
2017-11-16T07:16:55.339Z,8.90
2017-11-16T07:19:28.938Z,8.90
2017-11-16T07:22:02.424Z,8.90
2017-11-16T07:24:36.171Z,8.90
2017-11-16T07:27:09.767Z,8.90
2017-11-16T07:29:43.272Z,8.90
2017-11-16T07:32:16.776Z,9.00
2017-11-16T07:34:50.571Z,8.90
2017-11-16T07:37:24.338Z,8.90
2017-11-16T07:39:58.179Z,8.90
2017-11-16T07:42:31.897Z,8.90
2017-11-16T07:45:05.586Z,8.90
2017-11-16T07:47:39.155Z,9.00
2017-11-16T07:50:12.811Z,9.00
2017-11-16T07:52:46.471Z,8.90
2017-11-16T07:55:20.111Z,8.90
2017-11-16T07:57:53.816Z,9.00
2017-11-16T08:00:28.282Z,8.90
2017-11-16T08:03:01.928Z,8.90
2017-11-16T08:05:36.444Z,8.90
2017-11-16T08:08:10.863Z,8.90
2017-11-16T08:10:44.547Z,8.80
2017-11-16T08:13:18.015Z,8.90
2017-11-16T08:15:51.662Z,8.90
2017-11-16T08:18:26.423Z,8.90
2017-11-16T08:21:00.802Z,8.90
2017-11-16T08:23:34.513Z,8.90
2017-11-16T08:26:09.139Z,9.00
2017-11-16T08:28:42.738Z,9.00
2017-11-16T08:31:16.254Z,8.90
2017-11-16T08:33:49.839Z,8.90
2017-11-16T08:36:23.458Z,8.90
2017-11-16T08:38:57.143Z,9.00
2017-11-16T08:41:30.847Z,8.90
2017-11-16T08:44:04.408Z,9.00
2017-11-16T08:46:38.023Z,9.00
2017-11-16T08:49:11.615Z,9.00
2017-11-16T08:51:45.220Z,8.90
2017-11-16T08:54:18.946Z,8.90
2017-11-16T08:56:52.776Z,8.90
2017-11-16T08:59:26.583Z,8.80
2017-11-16T09:02:01.092Z,8.90
2017-11-16T09:04:34.668Z,8.90
2017-11-16T09:07:08.909Z,8.80
2017-11-16T09:09:42.512Z,8.80
2017-11-16T09:12:16.196Z,8.90
2017-11-16T09:14:49.816Z,8.90
2017-11-16T09:17:23.415Z,8.90
2017-11-16T09:19:57.002Z,8.90
2017-11-16T09:22:30.756Z,8.90
2017-11-16T09:25:05.298Z,8.90
2017-11-16T09:27:39.664Z,8.90
2017-11-16T09:30:13.222Z,8.90
2017-11-16T09:32:46.964Z,8.90
2017-11-16T09:35:20.772Z,8.80
2017-11-16T09:37:54.331Z,8.90
2017-11-16T09:40:28.167Z,8.90
2017-11-16T09:43:01.770Z,8.90
2017-11-16T09:45:35.578Z,8.80
2017-11-16T09:48:09.293Z,8.80
2017-11-16T09:50:44.292Z,8.90
2017-11-16T09:53:18.040Z,8.90
2017-11-16T09:55:51.483Z,8.90
2017-11-16T09:58:25.128Z,8.80
2017-11-16T10:00:58.927Z,8.80
2017-11-16T10:03:32.599Z,8.80
2017-11-16T10:06:06.336Z,8.80
2017-11-16T10:08:39.921Z,8.80
2017-11-16T10:11:13.531Z,8.80
2017-11-16T10:13:47.195Z,8.90
2017-11-16T10:16:20.814Z,8.90
2017-11-16T10:18:54.444Z,8.80
2017-11-16T10:21:27.992Z,8.80
2017-11-16T10:24:02.436Z,8.80
2017-11-16T10:26:42.004Z,8.80
2017-11-16T10:29:15.495Z,8.80
2017-11-16T10:31:49.163Z,8.80
2017-11-16T10:34:23.863Z,8.80
2017-11-16T10:36:57.433Z,8.80
2017-11-16T10:39:31.038Z,8.80
2017-11-16T10:42:04.596Z,8.90
2017-11-16T10:44:38.061Z,8.90
2017-11-16T10:47:11.884Z,9.00
2017-11-16T10:49:46.035Z,9.00
2017-11-16T10:52:19.847Z,9.00
2017-11-16T10:54:53.508Z,9.00
2017-11-16T10:57:27.165Z,9.00
2017-11-16T11:00:00.751Z,8.90
2017-11-16T11:02:34.992Z,8.90
2017-11-16T11:05:08.784Z,8.90
2017-11-16T11:07:43.099Z,8.80
2017-11-16T11:10:16.707Z,8.80
2017-11-16T11:12:50.300Z,8.90
2017-11-16T11:15:23.899Z,8.90
2017-11-16T11:17:57.363Z,9.00
2017-11-16T11:20:30.995Z,9.00
2017-11-16T11:23:05.928Z,8.90
2017-11-16T11:25:39.531Z,8.90
2017-11-16T11:28:12.986Z,8.90
2017-11-16T11:30:46.678Z,8.90
2017-11-16T11:33:21.132Z,9.00
2017-11-16T11:35:54.839Z,8.90
2017-11-16T11:38:28.449Z,9.00
2017-11-16T11:41:02.016Z,9.00
2017-11-16T11:43:36.267Z,8.90
2017-11-16T11:46:09.881Z,8.90
2017-11-16T11:48:43.475Z,8.90
2017-11-16T11:51:17.075Z,8.90
2017-11-16T11:53:50.742Z,8.80
2017-11-16T11:56:25.304Z,8.90
2017-11-16T11:58:58.895Z,8.80
2017-11-16T12:01:32.498Z,8.90
2017-11-16T12:04:05.956Z,8.90
2017-11-16T12:06:39.708Z,8.90
2017-11-16T12:09:14.132Z,8.90
2017-11-16T12:11:47.827Z,8.90
2017-11-16T12:14:22.380Z,8.90
2017-11-16T12:16:56.061Z,8.90
2017-11-16T12:19:29.876Z,8.90
2017-11-16T12:22:03.489Z,8.90
2017-11-16T12:24:37.099Z,8.90
2017-11-16T12:27:10.751Z,8.90
2017-11-16T12:29:44.310Z,8.80
2017-11-16T12:32:17.876Z,8.80
2017-11-16T12:34:51.377Z,8.80
2017-11-16T12:37:25.668Z,8.90
2017-11-16T12:39:59.280Z,8.90
2017-11-16T12:42:32.852Z,8.80
2017-11-16T12:45:06.427Z,8.80
2017-11-16T12:47:40.074Z,8.90
2017-11-16T12:50:13.887Z,8.90
2017-11-16T12:52:47.696Z,8.90
2017-11-16T12:55:22.015Z,8.90
2017-11-16T12:57:55.719Z,8.90
2017-11-16T13:00:30.135Z,8.90
2017-11-16T13:03:03.711Z,8.90
2017-11-16T13:05:37.970Z,8.90
2017-11-16T13:08:11.656Z,8.90
2017-11-16T13:10:45.201Z,8.90
2017-11-16T13:13:18.860Z,8.90
2017-11-16T13:15:52.367Z,8.90
2017-11-16T13:18:25.800Z,8.90
2017-11-16T13:20:59.843Z,8.90
2017-11-16T13:23:33.880Z,8.90
2017-11-16T13:26:07.440Z,8.90
2017-11-16T13:28:41.082Z,8.90
2017-11-16T13:31:14.725Z,8.90
2017-11-16T13:33:48.277Z,8.90
2017-11-16T13:36:21.778Z,8.90
2017-11-16T13:38:55.485Z,8.90
2017-11-16T13:41:29.080Z,8.90
2017-11-16T13:44:03.376Z,8.90
2017-11-16T13:46:37.099Z,8.90
2017-11-16T13:49:11.117Z,8.90
2017-11-16T13:51:44.900Z,8.90
2017-11-16T13:54:19.032Z,8.90
2017-11-16T13:56:52.532Z,8.90
2017-11-16T13:59:26.132Z,9.00
2017-11-16T14:02:01.008Z,9.00
2017-11-16T14:04:34.816Z,9.00
2017-11-16T14:07:08.423Z,9.00
2017-11-16T14:09:42.264Z,8.90
2017-11-16T14:12:15.771Z,8.90
2017-11-16T14:14:49.496Z,8.90
2017-11-16T14:17:23.036Z,8.90
2017-11-16T14:19:56.596Z,8.90
2017-11-16T14:22:30.268Z,8.90
2017-11-16T14:25:03.988Z,8.90
2017-11-16T14:27:37.793Z,8.90
2017-11-16T14:30:11.349Z,8.90
2017-11-16T14:32:44.960Z,8.90
2017-11-16T14:35:18.479Z,8.90
2017-11-16T14:37:52.151Z,8.90
2017-11-16T14:40:25.879Z,8.80
2017-11-16T14:42:59.743Z,8.80
2017-11-16T14:45:33.503Z,8.80
2017-11-16T14:48:07.111Z,8.80
2017-11-16T14:50:40.691Z,8.70
2017-11-16T14:53:14.316Z,8.80
2017-11-16T14:55:47.920Z,8.80
2017-11-16T14:58:21.520Z,8.80
2017-11-16T15:00:55.316Z,8.80
2017-11-16T15:03:28.972Z,8.80
2017-11-16T15:06:02.726Z,8.70
2017-11-16T15:08:36.380Z,8.70
2017-11-16T15:11:10.023Z,8.80
2017-11-16T15:13:43.628Z,8.80
2017-11-16T15:16:17.467Z,8.70
2017-11-16T15:18:51.037Z,8.70
2017-11-16T15:21:24.638Z,8.70
2017-11-16T15:23:59.114Z,8.60
2017-11-16T15:26:32.762Z,8.60
2017-11-16T15:29:06.356Z,8.60
2017-11-16T15:31:39.951Z,8.60
2017-11-16T15:34:13.664Z,8.70
2017-11-16T15:36:47.165Z,8.80
2017-11-16T15:39:20.767Z,8.70
2017-11-16T15:41:55.076Z,8.70
2017-11-16T15:44:28.890Z,8.70
2017-11-16T15:47:02.688Z,8.70
2017-11-16T15:49:36.232Z,8.70
2017-11-16T15:52:09.755Z,8.60
2017-11-16T15:54:43.293Z,8.60
2017-11-16T15:57:17.703Z,8.60
2017-11-16T15:59:51.314Z,8.60
2017-11-16T16:02:25.429Z,8.60
2017-11-16T16:04:59.130Z,8.60
2017-11-16T16:07:32.731Z,8.60
2017-11-16T16:10:06.312Z,8.60
2017-11-16T16:12:40.546Z,8.60
2017-11-16T16:15:14.141Z,8.60
2017-11-16T16:17:47.850Z,8.50
2017-11-16T16:20:21.498Z,8.60
2017-11-16T16:22:55.029Z,8.60
2017-11-16T16:25:28.652Z,8.50
2017-11-16T16:28:02.253Z,8.60
2017-11-16T16:30:35.968Z,8.70
2017-11-16T16:33:09.530Z,8.60
2017-11-16T16:35:44.077Z,8.60
2017-11-16T16:38:17.979Z,8.60
2017-11-16T16:40:51.590Z,8.60
2017-11-16T16:43:25.278Z,8.50
2017-11-16T16:45:58.887Z,8.60
2017-11-16T16:48:32.496Z,8.50
2017-11-16T16:51:05.992Z,8.50
2017-11-16T16:53:40.204Z,8.60
2017-11-16T16:56:14.595Z,8.60
2017-11-16T16:58:50.690Z,8.60
2017-11-16T17:01:24.389Z,8.50
2017-11-16T17:03:58.327Z,8.60
2017-11-16T17:06:31.888Z,8.60
2017-11-16T17:09:05.700Z,8.50
2017-11-16T17:11:39.290Z,8.50
2017-11-16T17:14:13.819Z,8.50
2017-11-16T17:16:47.945Z,8.50
2017-11-16T17:19:21.415Z,8.60
2017-11-16T17:21:55.032Z,8.50
2017-11-16T17:24:28.543Z,8.50
2017-11-16T17:27:02.143Z,8.50
2017-11-16T17:29:36.628Z,8.60
2017-11-16T17:32:10.471Z,8.60
2017-11-16T17:34:44.071Z,8.60
2017-11-16T17:37:17.628Z,8.50
2017-11-16T17:39:51.217Z,8.50
2017-11-16T17:42:24.755Z,8.40
2017-11-16T17:44:58.231Z,8.40
2017-11-16T17:47:31.865Z,8.40
2017-11-16T17:50:05.459Z,8.40
2017-11-16T17:52:39.055Z,8.50
2017-11-16T17:55:12.563Z,8.50
2017-11-16T17:57:46.064Z,8.50
2017-11-16T18:00:19.858Z,8.40
2017-11-16T18:02:53.462Z,8.30
2017-11-16T18:05:27.063Z,8.40
2017-11-16T18:08:00.676Z,8.40
2017-11-16T18:10:34.240Z,8.40
2017-11-16T18:13:07.751Z,8.40
2017-11-16T18:15:41.367Z,8.40
2017-11-16T18:18:15.380Z,8.30
2017-11-16T18:20:48.971Z,8.30
2017-11-16T18:23:23.196Z,8.40
2017-11-16T18:25:57.398Z,8.50
2017-11-16T18:28:32.009Z,8.40
2017-11-16T18:31:05.731Z,8.40
2017-11-16T18:33:39.299Z,8.40
2017-11-16T18:36:12.795Z,8.40
2017-11-16T18:38:46.715Z,8.40
2017-11-16T18:41:20.356Z,8.40
2017-11-16T18:43:54.054Z,8.40
2017-11-16T18:46:27.607Z,8.30
2017-11-16T18:49:01.215Z,8.30
2017-11-16T18:51:35.573Z,8.30
2017-11-16T18:54:09.847Z,8.40
2017-11-16T18:56:43.528Z,8.30
2017-11-16T18:59:17.040Z,8.30
2017-11-16T19:01:50.481Z,8.30
2017-11-16T19:04:23.992Z,8.30
2017-11-16T19:06:58.276Z,8.30
2017-11-16T19:09:31.738Z,8.30
2017-11-16T19:12:05.353Z,8.30
2017-11-16T19:14:39.008Z,8.30
2017-11-16T19:17:12.672Z,8.20
2017-11-16T19:19:46.978Z,8.20
2017-11-16T19:22:20.506Z,8.20
2017-11-16T19:24:54.108Z,8.20
2017-11-16T19:27:28.444Z,8.20
2017-11-16T19:30:01.872Z,8.20
2017-11-16T19:32:35.395Z,8.10
2017-11-16T19:35:08.912Z,8.10
2017-11-16T19:37:43.137Z,8.20
2017-11-16T19:40:16.593Z,8.10
2017-11-16T19:42:50.056Z,8.20
2017-11-16T19:45:23.495Z,8.20
2017-11-16T19:47:57.020Z,8.10
2017-11-16T19:50:31.426Z,8.20
2017-11-16T19:53:05.081Z,8.20
2017-11-16T19:55:38.639Z,8.10
2017-11-16T19:58:12.163Z,8.10
2017-11-16T20:00:45.692Z,8.10
2017-11-16T20:03:19.140Z,8.10
2017-11-16T20:05:52.647Z,8.10
2017-11-16T20:08:26.940Z,8.10
2017-11-16T20:11:00.510Z,8.20
2017-11-16T20:13:34.178Z,8.10
2017-11-16T20:16:07.617Z,8.10
2017-11-16T20:18:41.130Z,8.00
2017-11-16T20:21:14.655Z,8.10
2017-11-16T20:23:48.955Z,8.00
2017-11-16T20:26:23.172Z,8.00
2017-11-16T20:28:57.399Z,8.00
2017-11-16T20:31:30.911Z,8.00
2017-11-16T20:34:04.595Z,8.10
2017-11-16T20:36:53.944Z,8.10
2017-11-16T20:39:29.341Z,8.10
2017-11-16T20:42:08.575Z,8.10
2017-11-16T20:44:57.740Z,8.10
2017-11-16T20:47:37.061Z,8.10
2017-11-16T20:50:26.238Z,8.10
2017-11-16T20:53:00.619Z,8.20
2017-11-16T20:55:49.032Z,8.10
2017-11-16T20:58:22.684Z,8.10
2017-11-16T21:00:56.210Z,8.10
2017-11-16T21:03:30.486Z,8.10
2017-11-16T21:06:04.807Z,8.10
2017-11-16T21:08:38.372Z,8.10
2017-11-16T21:11:11.907Z,8.10
2017-11-16T21:13:45.579Z,8.10
2017-11-16T21:16:19.178Z,8.10
2017-11-16T21:18:52.689Z,8.10
2017-11-16T21:21:26.347Z,8.10
2017-11-16T21:24:00.612Z,8.00
2017-11-16T21:26:34.158Z,8.00
2017-11-16T21:29:07.698Z,8.10
2017-11-16T21:31:41.300Z,8.10
2017-11-16T21:34:14.807Z,8.10
2017-11-16T21:36:48.335Z,8.10
2017-11-16T21:39:21.897Z,8.00
2017-11-16T21:41:55.357Z,8.00
2017-11-16T21:44:28.965Z,8.00
2017-11-16T21:47:03.339Z,8.00
2017-11-16T21:49:37.544Z,8.00
2017-11-16T21:52:11.079Z,8.00
2017-11-16T21:54:44.740Z,8.00
2017-11-16T21:57:18.185Z,8.00
2017-11-16T21:59:51.825Z,7.90
2017-11-16T22:02:25.339Z,8.00
2017-11-16T22:04:59.768Z,8.10
2017-11-16T22:07:34.191Z,8.10
2017-11-16T22:10:07.651Z,8.00
2017-11-16T22:12:41.184Z,8.10
2017-11-16T22:15:14.722Z,8.10
2017-11-16T22:17:48.158Z,8.10
2017-11-16T22:20:21.671Z,8.00
2017-11-16T22:22:55.123Z,8.10
2017-11-16T22:25:28.665Z,8.10
2017-11-16T22:28:02.311Z,8.00
2017-11-16T22:30:36.600Z,8.00
2017-11-16T22:33:11.263Z,7.90
2017-11-16T22:35:45.533Z,8.00
2017-11-16T22:38:19.867Z,8.00
2017-11-16T22:40:54.068Z,7.90
2017-11-16T22:43:28.573Z,8.00
2017-11-16T22:46:02.596Z,8.00
2017-11-16T22:48:36.457Z,8.00
2017-11-16T22:51:10.628Z,8.00
2017-11-16T22:53:44.172Z,8.00
2017-11-16T22:56:17.647Z,8.00
2017-11-16T22:58:51.559Z,8.10
2017-11-16T23:01:25.460Z,8.00
2017-11-16T23:03:59.067Z,8.10
2017-11-16T23:06:33.442Z,8.10
2017-11-16T23:09:07.186Z,8.10
2017-11-16T23:11:40.762Z,8.10
2017-11-16T23:14:14.401Z,8.10
2017-11-16T23:16:48.047Z,8.00
2017-11-16T23:19:21.544Z,8.00
2017-11-16T23:21:55.302Z,8.00
2017-11-16T23:24:28.903Z,8.00
2017-11-16T23:27:02.608Z,8.00
2017-11-16T23:29:36.235Z,8.00
2017-11-16T23:32:09.944Z,7.90
2017-11-16T23:34:43.819Z,8.00
2017-11-16T23:37:18.227Z,8.10
2017-11-16T23:39:51.923Z,8.10
2017-11-16T23:42:25.534Z,8.00
2017-11-16T23:44:59.045Z,8.00
2017-11-16T23:47:32.516Z,8.00
2017-11-16T23:50:06.130Z,8.10
2017-11-16T23:52:39.840Z,8.10
2017-11-16T23:55:13.396Z,8.00
2017-11-16T23:57:47.048Z,8.00
